sensor_id;sensor_type;location;lat;lon;timestamp;pressure;altitude;pressure_sealevel;temperature;humidity
8653;BME280;4364;52.426;9.424;2023-11-19T00:00:48;100367.75;;;6.59;100.00
8653;BME280;4364;52.426;9.424;2023-11-19T00:03:18;100361.00;;;6.61;100.00
8653;BME280;4364;52.426;9.424;2023-11-19T00:05:44;100362.09;;;6.60;100.00
8653;BME280;4364;52.426;9.424;2023-11-19T00:08:11;100360.47;;;6.64;100.00
8653;BME280;4364;52.426;9.424;2023-11-19T00:10:37;100355.09;;;6.70;100.00
8653;BME280;4364;52.426;9.424;2023-11-19T00:13:04;100358.06;;;6.68;100.00
8653;BME280;4364;52.426;9.424;2023-11-19T00:15:30;100348.94;;;6.74;100.00
8653;BME280;4364;52.426;9.424;2023-11-19T00:17:57;100344.97;;;6.87;100.00
8653;BME280;4364;52.426;9.424;2023-11-19T00:20:27;100348.22;;;6.89;100.00
8653;BME280;4364;52.426;9.424;2023-11-19T00:22:55;100333.09;;;6.93;100.00
8653;BME280;4364;52.426;9.424;2023-11-19T00:25:21;100338.00;;;6.96;100.00
8653;BME280;4364;52.426;9.424;2023-11-19T00:27:48;100331.22;;;6.94;100.00
8653;BME280;4364;52.426;9.424;2023-11-19T00:30:17;100333.19;;;7.03;100.00
8653;BME280;4364;52.426;9.424;2023-11-19T00:32:43;100327.69;;;6.93;100.00
8653;BME280;4364;52.426;9.424;2023-11-19T00:35:10;100342.56;;;6.91;100.00
8653;BME280;4364;52.426;9.424;2023-11-19T00:37:37;100338.47;;;6.88;100.00
8653;BME280;4364;52.426;9.424;2023-11-19T00:40:04;100329.66;;;7.03;100.00
8653;BME280;4364;52.426;9.424;2023-11-19T00:42:32;100309.69;;;7.14;100.00
8653;BME280;4364;52.426;9.424;2023-11-19T00:44:58;100317.00;;;7.14;100.00
8653;BME280;4364;52.426;9.424;2023-11-19T00:47:26;100300.25;;;7.17;100.00
8653;BME280;4364;52.426;9.424;2023-11-19T00:49:53;100293.50;;;7.19;100.00
8653;BME280;4364;52.426;9.424;2023-11-19T00:52:19;100290.50;;;7.16;100.00
8653;BME280;4364;52.426;9.424;2023-11-19T00:54:46;100274.56;;;7.19;100.00
8653;BME280;4364;52.426;9.424;2023-11-19T00:57:13;100285.66;;;7.23;100.00
8653;BME280;4364;52.426;9.424;2023-11-19T00:59:42;100276.78;;;7.38;100.00
8653;BME280;4364;52.426;9.424;2023-11-19T01:02:08;100279.50;;;7.43;100.00
8653;BME280;4364;52.426;9.424;2023-11-19T01:04:36;100272.78;;;7.46;100.00
8653;BME280;4364;52.426;9.424;2023-11-19T01:07:03;100259.78;;;7.42;100.00
8653;BME280;4364;52.426;9.424;2023-11-19T01:09:32;100256.81;;;7.49;100.00
8653;BME280;4364;52.426;9.424;2023-11-19T01:12:02;100253.00;;;7.40;100.00
8653;BME280;4364;52.426;9.424;2023-11-19T01:14:29;100250.25;;;7.30;100.00
8653;BME280;4364;52.426;9.424;2023-11-19T01:16:56;100247.31;;;7.41;100.00
8653;BME280;4364;52.426;9.424;2023-11-19T01:19:23;100248.41;;;7.46;100.00
8653;BME280;4364;52.426;9.424;2023-11-19T01:21:50;100241.38;;;7.39;100.00
8653;BME280;4364;52.426;9.424;2023-11-19T01:24:17;100243.81;;;7.41;100.00
8653;BME280;4364;52.426;9.424;2023-11-19T01:26:44;100248.69;;;7.44;100.00
8653;BME280;4364;52.426;9.424;2023-11-19T01:29:14;100243.78;;;7.36;100.00
8653;BME280;4364;52.426;9.424;2023-11-19T01:31:45;100232.44;;;7.39;100.00
8653;BME280;4364;52.426;9.424;2023-11-19T01:34:13;100231.91;;;7.47;100.00
8653;BME280;4364;52.426;9.424;2023-11-19T01:36:39;100224.06;;;7.40;100.00
8653;BME280;4364;52.426;9.424;2023-11-19T01:39:06;100210.81;;;7.44;100.00
8653;BME280;4364;52.426;9.424;2023-11-19T01:41:37;100201.84;;;7.33;100.00
8653;BME280;4364;52.426;9.424;2023-11-19T01:44:08;100219.72;;;7.45;100.00
8653;BME280;4364;52.426;9.424;2023-11-19T01:46:35;100225.16;;;7.55;100.00
8653;BME280;4364;52.426;9.424;2023-11-19T01:49:02;100211.88;;;7.43;100.00
8653;BME280;4364;52.426;9.424;2023-11-19T01:51:29;100217.88;;;7.50;100.00
8653;BME280;4364;52.426;9.424;2023-11-19T01:53:57;100200.81;;;7.50;100.00
8653;BME280;4364;52.426;9.424;2023-11-19T01:56:24;100208.09;;;7.44;100.00
8653;BME280;4364;52.426;9.424;2023-11-19T01:58:54;100200.25;;;7.53;100.00
8653;BME280;4364;52.426;9.424;2023-11-19T02:01:21;100199.47;;;7.63;100.00
8653;BME280;4364;52.426;9.424;2023-11-19T02:03:48;100204.34;;;7.60;100.00
8653;BME280;4364;52.426;9.424;2023-11-19T02:06:15;100206.25;;;7.65;100.00
8653;BME280;4364;52.426;9.424;2023-11-19T02:08:43;100189.72;;;7.67;100.00
8653;BME280;4364;52.426;9.424;2023-11-19T02:11:10;100202.19;;;7.63;100.00
8653;BME280;4364;52.426;9.424;2023-11-19T02:13:39;100197.03;;;7.61;100.00
8653;BME280;4364;52.426;9.424;2023-11-19T02:16:07;100193.53;;;7.66;100.00
8653;BME280;4364;52.426;9.424;2023-11-19T02:18:36;100189.44;;;7.58;100.00
8653;BME280;4364;52.426;9.424;2023-11-19T02:21:02;100187.56;;;7.58;100.00
8653;BME280;4364;52.426;9.424;2023-11-19T02:23:30;100173.22;;;7.68;100.00
8653;BME280;4364;52.426;9.424;2023-11-19T02:28:29;100172.69;;;7.76;100.00
8653;BME280;4364;52.426;9.424;2023-11-19T02:30:55;100163.50;;;7.72;100.00
8653;BME280;4364;52.426;9.424;2023-11-19T02:33:22;100159.72;;;7.78;100.00
8653;BME280;4364;52.426;9.424;2023-11-19T02:35:49;100160.25;;;7.70;100.00
8653;BME280;4364;52.426;9.424;2023-11-19T02:38:15;100159.41;;;7.75;100.00
8653;BME280;4364;52.426;9.424;2023-11-19T02:40:42;100153.72;;;7.87;100.00
8653;BME280;4364;52.426;9.424;2023-11-19T02:43:08;100155.91;;;7.79;100.00
8653;BME280;4364;52.426;9.424;2023-11-19T02:45:35;100134.78;;;7.92;100.00
8653;BME280;4364;52.426;9.424;2023-11-19T02:48:02;100130.16;;;8.03;100.00
8653;BME280;4364;52.426;9.424;2023-11-19T02:50:29;100124.75;;;7.97;100.00
8653;BME280;4364;52.426;9.424;2023-11-19T02:52:56;100125.28;;;8.05;100.00
8653;BME280;4364;52.426;9.424;2023-11-19T02:55:24;100125.28;;;8.00;100.00
8653;BME280;4364;52.426;9.424;2023-11-19T02:57:51;100127.97;;;8.05;100.00
8653;BME280;4364;52.426;9.424;2023-11-19T03:00:23;100128.81;;;8.05;100.00
8653;BME280;4364;52.426;9.424;2023-11-19T03:03:03;100124.47;;;8.09;100.00
8653;BME280;4364;52.426;9.424;2023-11-19T03:05:47;100110.34;;;8.18;100.00
8653;BME280;4364;52.426;9.424;2023-11-19T03:08:17;100115.22;;;8.26;100.00
8653;BME280;4364;52.426;9.424;2023-11-19T03:10:46;100119.53;;;8.22;100.00
8653;BME280;4364;52.426;9.424;2023-11-19T03:13:13;100128.22;;;8.24;100.00
8653;BME280;4364;52.426;9.424;2023-11-19T03:15:40;100116.84;;;8.22;100.00
8653;BME280;4364;52.426;9.424;2023-11-19T03:18:07;100111.41;;;8.27;100.00
8653;BME280;4364;52.426;9.424;2023-11-19T03:20:34;100116.28;;;8.25;100.00
8653;BME280;4364;52.426;9.424;2023-11-19T03:23:01;100111.69;;;8.25;100.00
8653;BME280;4364;52.426;9.424;2023-11-19T03:25:28;100108.69;;;8.27;100.00
8653;BME280;4364;52.426;9.424;2023-11-19T03:28:00;100105.94;;;8.42;100.00
8653;BME280;4364;52.426;9.424;2023-11-19T03:30:32;100110.28;;;8.48;100.00
8653;BME280;4364;52.426;9.424;2023-11-19T03:33:00;100107.03;;;8.46;100.00
8653;BME280;4364;52.426;9.424;2023-11-19T03:35:28;100110.84;;;8.50;100.00
8653;BME280;4364;52.426;9.424;2023-11-19T03:37:56;100105.06;;;8.67;100.00
8653;BME280;4364;52.426;9.424;2023-11-19T03:40:23;100106.31;;;8.90;100.00
8653;BME280;4364;52.426;9.424;2023-11-19T03:42:52;100103.41;;;9.16;100.00
8653;BME280;4364;52.426;9.424;2023-11-19T03:45:19;100097.06;;;9.31;100.00
8653;BME280;4364;52.426;9.424;2023-11-19T03:47:45;100092.06;;;9.43;100.00
8653;BME280;4364;52.426;9.424;2023-11-19T03:50:12;100075.41;;;9.55;100.00
8653;BME280;4364;52.426;9.424;2023-11-19T03:52:39;100079.75;;;9.56;100.00
8653;BME280;4364;52.426;9.424;2023-11-19T03:55:08;100083.81;;;9.59;100.00
8653;BME280;4364;52.426;9.424;2023-11-19T03:57:35;100073.63;;;9.75;100.00
8653;BME280;4364;52.426;9.424;2023-11-19T04:00:02;100075.03;;;9.72;100.00
8653;BME280;4364;52.426;9.424;2023-11-19T04:02:38;100078.94;;;9.85;100.00
8653;BME280;4364;52.426;9.424;2023-11-19T04:05:05;100071.47;;;10.01;100.00
8653;BME280;4364;52.426;9.424;2023-11-19T04:07:33;100073.84;;;10.08;100.00
8653;BME280;4364;52.426;9.424;2023-11-19T04:09:59;100067.06;;;10.05;100.00
8653;BME280;4364;52.426;9.424;2023-11-19T04:12:26;100060.25;;;10.08;100.00
8653;BME280;4364;52.426;9.424;2023-11-19T04:14:53;100064.06;;;10.07;100.00
8653;BME280;4364;52.426;9.424;2023-11-19T04:17:22;100063.41;;;10.15;100.00
8653;BME280;4364;52.426;9.424;2023-11-19T04:19:49;100073.25;;;10.11;100.00
8653;BME280;4364;52.426;9.424;2023-11-19T04:22:16;100076.38;;;10.23;100.00
8653;BME280;4364;52.426;9.424;2023-11-19T04:24:44;100071.16;;;10.27;100.00
8653;BME280;4364;52.426;9.424;2023-11-19T04:27:12;100079.38;;;10.22;100.00
8653;BME280;4364;52.426;9.424;2023-11-19T04:29:39;100073.66;;;10.23;100.00
8653;BME280;4364;52.426;9.424;2023-11-19T04:32:06;100080.47;;;10.20;100.00
8653;BME280;4364;52.426;9.424;2023-11-19T04:34:32;100087.44;;;10.32;100.00
8653;BME280;4364;52.426;9.424;2023-11-19T04:36:59;100074.69;;;10.27;100.00
8653;BME280;4364;52.426;9.424;2023-11-19T04:39:40;100081.41;;;10.35;100.00
8653;BME280;4364;52.426;9.424;2023-11-19T04:42:06;100071.91;;;10.37;100.00
8653;BME280;4364;52.426;9.424;2023-11-19T04:44:33;100077.09;;;10.29;100.00
8653;BME280;4364;52.426;9.424;2023-11-19T04:46:59;100075.19;;;10.34;100.00
8653;BME280;4364;52.426;9.424;2023-11-19T04:49:28;100073.44;;;10.44;100.00
8653;BME280;4364;52.426;9.424;2023-11-19T04:51:56;100054.81;;;10.56;100.00
8653;BME280;4364;52.426;9.424;2023-11-19T04:54:23;100051.25;;;10.55;100.00
8653;BME280;4364;52.426;9.424;2023-11-19T04:56:50;100058.91;;;10.53;100.00
8653;BME280;4364;52.426;9.424;2023-11-19T04:59:17;100053.91;;;10.61;100.00
8653;BME280;4364;52.426;9.424;2023-11-19T05:01:47;100055.44;;;10.48;100.00
8653;BME280;4364;52.426;9.424;2023-11-19T05:04:14;100042.16;;;10.46;100.00
8653;BME280;4364;52.426;9.424;2023-11-19T05:06:42;100042.22;;;10.41;100.00
8653;BME280;4364;52.426;9.424;2023-11-19T05:09:08;100040.06;;;10.38;100.00
8653;BME280;4364;52.426;9.424;2023-11-19T05:11:35;100035.91;;;10.46;100.00
8653;BME280;4364;52.426;9.424;2023-11-19T05:14:02;100023.19;;;10.41;100.00
8653;BME280;4364;52.426;9.424;2023-11-19T05:16:31;100020.97;;;10.43;100.00
8653;BME280;4364;52.426;9.424;2023-11-19T05:18:57;100020.19;;;10.43;100.00
8653;BME280;4364;52.426;9.424;2023-11-19T05:21:24;100018.34;;;10.38;100.00
8653;BME280;4364;52.426;9.424;2023-11-19T05:23:50;100023.69;;;10.43;100.00
8653;BME280;4364;52.426;9.424;2023-11-19T05:26:18;100024.72;;;10.47;100.00
8653;BME280;4364;52.426;9.424;2023-11-19T05:28:45;100029.56;;;10.50;100.00
8653;BME280;4364;52.426;9.424;2023-11-19T05:31:12;100029.88;;;10.49;100.00
8653;BME280;4364;52.426;9.424;2023-11-19T05:33:39;100032.59;;;10.49;100.00
8653;BME280;4364;52.426;9.424;2023-11-19T05:36:06;100037.44;;;10.52;100.00
8653;BME280;4364;52.426;9.424;2023-11-19T05:38:35;100032.69;;;10.63;100.00
8653;BME280;4364;52.426;9.424;2023-11-19T05:41:03;100033.06;;;10.56;100.00
8653;BME280;4364;52.426;9.424;2023-11-19T05:43:31;100042.75;;;10.62;100.00
8653;BME280;4364;52.426;9.424;2023-11-19T05:45:58;100034.28;;;10.64;100.00
8653;BME280;4364;52.426;9.424;2023-11-19T05:48:26;100039.81;;;10.59;100.00
8653;BME280;4364;52.426;9.424;2023-11-19T05:50:53;100034.66;;;10.57;100.00
8653;BME280;4364;52.426;9.424;2023-11-19T05:53:20;100039.72;;;10.64;100.00
8653;BME280;4364;52.426;9.424;2023-11-19T05:55:46;100034.94;;;10.55;100.00
8653;BME280;4364;52.426;9.424;2023-11-19T05:58:24;100025.91;;;10.60;100.00
8653;BME280;4364;52.426;9.424;2023-11-19T06:00:56;100019.38;;;10.61;100.00
8653;BME280;4364;52.426;9.424;2023-11-19T06:03:23;100026.84;;;10.50;100.00
8653;BME280;4364;52.426;9.424;2023-11-19T06:05:50;100030.69;;;10.49;100.00
8653;BME280;4364;52.426;9.424;2023-11-19T06:08:16;100030.63;;;10.54;100.00
8653;BME280;4364;52.426;9.424;2023-11-19T06:10:44;100025.03;;;10.46;100.00
8653;BME280;4364;52.426;9.424;2023-11-19T06:13:13;100036.28;;;10.58;100.00
8653;BME280;4364;52.426;9.424;2023-11-19T06:15:42;100031.94;;;10.57;100.00
8653;BME280;4364;52.426;9.424;2023-11-19T06:18:08;100037.94;;;10.54;100.00
8653;BME280;4364;52.426;9.424;2023-11-19T06:20:36;100032.16;;;10.61;100.00
8653;BME280;4364;52.426;9.424;2023-11-19T06:23:05;100047.94;;;10.59;100.00
8653;BME280;4364;52.426;9.424;2023-11-19T06:25:32;100046.78;;;10.65;100.00
8653;BME280;4364;52.426;9.424;2023-11-19T06:27:59;100040.22;;;10.66;100.00
8653;BME280;4364;52.426;9.424;2023-11-19T06:30:26;100045.59;;;10.52;100.00
8653;BME280;4364;52.426;9.424;2023-11-19T06:32:54;100049.38;;;10.56;100.00
8653;BME280;4364;52.426;9.424;2023-11-19T06:35:21;100055.09;;;10.54;100.00
8653;BME280;4364;52.426;9.424;2023-11-19T06:37:47;100051.16;;;10.42;100.00
8653;BME280;4364;52.426;9.424;2023-11-19T06:40:14;100046.44;;;10.52;100.00
8653;BME280;4364;52.426;9.424;2023-11-19T06:42:42;100064.34;;;10.53;100.00
8653;BME280;4364;52.426;9.424;2023-11-19T06:45:08;100066.31;;;10.48;100.00
8653;BME280;4364;52.426;9.424;2023-11-19T06:47:35;100067.84;;;10.54;100.00
8653;BME280;4364;52.426;9.424;2023-11-19T06:50:02;100065.81;;;10.65;100.00
8653;BME280;4364;52.426;9.424;2023-11-19T06:52:31;100074.50;;;10.67;100.00
8653;BME280;4364;52.426;9.424;2023-11-19T06:54:58;100081.91;;;10.61;100.00
8653;BME280;4364;52.426;9.424;2023-11-19T06:57:28;100076.63;;;10.70;100.00
8653;BME280;4364;52.426;9.424;2023-11-19T06:59:56;100074.78;;;10.65;100.00
8653;BME280;4364;52.426;9.424;2023-11-19T07:02:22;100077.72;;;10.69;100.00
8653;BME280;4364;52.426;9.424;2023-11-19T07:04:52;100086.34;;;10.76;100.00
8653;BME280;4364;52.426;9.424;2023-11-19T07:07:18;100090.22;;;10.70;100.00
8653;BME280;4364;52.426;9.424;2023-11-19T07:09:46;100080.22;;;10.65;100.00
8653;BME280;4364;52.426;9.424;2023-11-19T07:12:13;100077.22;;;10.67;100.00
8653;BME280;4364;52.426;9.424;2023-11-19T07:14:40;100077.94;;;10.72;100.00
8653;BME280;4364;52.426;9.424;2023-11-19T07:17:08;100085.50;;;10.75;100.00
8653;BME280;4364;52.426;9.424;2023-11-19T07:19:37;100079.84;;;10.72;100.00
8653;BME280;4364;52.426;9.424;2023-11-19T07:22:05;100095.72;;;10.65;100.00
8653;BME280;4364;52.426;9.424;2023-11-19T07:24:33;100104.56;;;10.75;100.00
8653;BME280;4364;52.426;9.424;2023-11-19T07:26:59;100093.81;;;10.65;100.00
8653;BME280;4364;52.426;9.424;2023-11-19T07:29:26;100101.47;;;10.63;100.00
8653;BME280;4364;52.426;9.424;2023-11-19T07:31:55;100100.00;;;10.71;100.00
8653;BME280;4364;52.426;9.424;2023-11-19T07:34:22;100108.97;;;10.71;100.00
8653;BME280;4364;52.426;9.424;2023-11-19T07:36:50;100104.91;;;10.69;100.00
8653;BME280;4364;52.426;9.424;2023-11-19T07:39:16;100107.69;;;10.64;100.00
8653;BME280;4364;52.426;9.424;2023-11-19T07:41:43;100107.25;;;10.56;100.00
8653;BME280;4364;52.426;9.424;2023-11-19T07:44:09;100104.13;;;10.68;100.00
8653;BME280;4364;52.426;9.424;2023-11-19T07:46:37;100102.41;;;10.72;100.00
8653;BME280;4364;52.426;9.424;2023-11-19T07:49:04;100110.00;;;10.75;100.00
8653;BME280;4364;52.426;9.424;2023-11-19T07:51:30;100112.78;;;10.70;100.00
8653;BME280;4364;52.426;9.424;2023-11-19T07:53:56;100113.59;;;10.71;100.00
8653;BME280;4364;52.426;9.424;2023-11-19T07:56:23;100110.13;;;10.65;100.00
8653;BME280;4364;52.426;9.424;2023-11-19T07:58:50;100104.75;;;10.60;100.00
8653;BME280;4364;52.426;9.424;2023-11-19T08:01:17;100116.97;;;10.63;100.00
8653;BME280;4364;52.426;9.424;2023-11-19T08:03:43;100115.13;;;10.58;100.00
8653;BME280;4364;52.426;9.424;2023-11-19T08:06:24;100121.06;;;10.60;100.00
8653;BME280;4364;52.426;9.424;2023-11-19T08:08:51;100115.34;;;10.62;100.00
8653;BME280;4364;52.426;9.424;2023-11-19T08:11:18;100117.63;;;10.73;100.00
8653;BME280;4364;52.426;9.424;2023-11-19T08:13:46;100118.44;;;10.74;100.00
8653;BME280;4364;52.426;9.424;2023-11-19T08:16:13;100121.44;;;10.72;100.00
8653;BME280;4364;52.426;9.424;2023-11-19T08:18:43;100130.22;;;10.69;100.00
8653;BME280;4364;52.426;9.424;2023-11-19T08:21:10;100122.06;;;10.69;100.00
8653;BME280;4364;52.426;9.424;2023-11-19T08:23:36;100132.66;;;10.71;100.00
8653;BME280;4364;52.426;9.424;2023-11-19T08:26:05;100134.75;;;10.74;100.00
8653;BME280;4364;52.426;9.424;2023-11-19T08:28:32;100134.19;;;10.77;100.00
8653;BME280;4364;52.426;9.424;2023-11-19T08:31:01;100142.63;;;10.75;100.00
8653;BME280;4364;52.426;9.424;2023-11-19T08:33:28;100135.59;;;10.74;100.00
8653;BME280;4364;52.426;9.424;2023-11-19T08:35:55;100137.19;;;10.75;100.00
8653;BME280;4364;52.426;9.424;2023-11-19T08:38:21;100132.50;;;10.81;100.00
8653;BME280;4364;52.426;9.424;2023-11-19T08:40:51;100137.41;;;10.79;100.00
8653;BME280;4364;52.426;9.424;2023-11-19T08:43:18;100141.81;;;10.75;100.00
8653;BME280;4364;52.426;9.424;2023-11-19T08:45:45;100145.22;;;10.86;100.00
8653;BME280;4364;52.426;9.424;2023-11-19T08:48:11;100151.84;;;10.80;100.00
8653;BME280;4364;52.426;9.424;2023-11-19T08:50:38;100136.03;;;10.82;100.00
8653;BME280;4364;52.426;9.424;2023-11-19T08:53:04;100143.09;;;10.83;100.00
8653;BME280;4364;52.426;9.424;2023-11-19T08:55:33;100139.69;;;10.72;100.00
8653;BME280;4364;52.426;9.424;2023-11-19T08:58:00;100135.81;;;10.78;100.00
8653;BME280;4364;52.426;9.424;2023-11-19T09:00:27;100145.28;;;10.81;100.00
8653;BME280;4364;52.426;9.424;2023-11-19T09:02:54;100143.09;;;10.83;100.00
8653;BME280;4364;52.426;9.424;2023-11-19T09:05:20;100157.50;;;10.83;100.00
8653;BME280;4364;52.426;9.424;2023-11-19T09:07:47;100150.59;;;10.91;100.00
8653;BME280;4364;52.426;9.424;2023-11-19T09:10:15;100157.66;;;10.92;100.00
8653;BME280;4364;52.426;9.424;2023-11-19T09:12:42;100159.13;;;11.03;100.00
8653;BME280;4364;52.426;9.424;2023-11-19T09:15:09;100165.88;;;11.06;100.00
8653;BME280;4364;52.426;9.424;2023-11-19T09:17:37;100163.50;;;11.04;100.00
8653;BME280;4364;52.426;9.424;2023-11-19T09:20:03;100164.22;;;11.10;100.00
8653;BME280;4364;52.426;9.424;2023-11-19T09:22:30;100161.28;;;11.06;100.00
8653;BME280;4364;52.426;9.424;2023-11-19T09:24:57;100168.97;;;10.99;100.00
8653;BME280;4364;52.426;9.424;2023-11-19T09:27:26;100163.31;;;10.96;100.00
8653;BME280;4364;52.426;9.424;2023-11-19T09:29:53;100171.47;;;10.96;100.00
8653;BME280;4364;52.426;9.424;2023-11-19T09:32:24;100166.84;;;10.96;100.00
8653;BME280;4364;52.426;9.424;2023-11-19T09:34:51;100170.75;;;10.90;100.00
8653;BME280;4364;52.426;9.424;2023-11-19T09:37:18;100162.81;;;10.93;100.00
8653;BME280;4364;52.426;9.424;2023-11-19T09:39:48;100165.22;;;10.95;100.00
8653;BME280;4364;52.426;9.424;2023-11-19T09:42:14;100171.66;;;11.04;100.00
8653;BME280;4364;52.426;9.424;2023-11-19T09:44:42;100174.06;;;11.06;100.00
8653;BME280;4364;52.426;9.424;2023-11-19T09:47:10;100171.56;;;11.09;100.00
8653;BME280;4364;52.426;9.424;2023-11-19T09:49:37;100169.00;;;11.18;100.00
8653;BME280;4364;52.426;9.424;2023-11-19T09:52:05;100168.03;;;11.09;100.00
8653;BME280;4364;52.426;9.424;2023-11-19T09:54:31;100189.00;;;11.08;100.00
8653;BME280;4364;52.426;9.424;2023-11-19T09:56:59;100181.19;;;11.21;100.00
8653;BME280;4364;52.426;9.424;2023-11-19T09:59:30;100172.75;;;11.22;100.00
8653;BME280;4364;52.426;9.424;2023-11-19T10:01:57;100166.50;;;11.22;100.00
8653;BME280;4364;52.426;9.424;2023-11-19T10:04:25;100169.59;;;11.15;100.00
8653;BME280;4364;52.426;9.424;2023-11-19T10:06:56;100178.75;;;11.19;100.00
8653;BME280;4364;52.426;9.424;2023-11-19T10:09:22;100187.75;;;11.20;100.00
8653;BME280;4364;52.426;9.424;2023-11-19T10:11:49;100177.53;;;11.11;100.00
8653;BME280;4364;52.426;9.424;2023-11-19T10:14:18;100165.38;;;11.04;100.00
8653;BME280;4364;52.426;9.424;2023-11-19T10:16:45;100171.41;;;11.01;100.00
8653;BME280;4364;52.426;9.424;2023-11-19T10:19:19;100170.09;;;10.98;100.00
8653;BME280;4364;52.426;9.424;2023-11-19T10:21:46;100169.81;;;11.00;100.00
8653;BME280;4364;52.426;9.424;2023-11-19T10:24:13;100165.09;;;11.05;100.00
8653;BME280;4364;52.426;9.424;2023-11-19T10:26:56;100166.88;;;11.15;100.00
8653;BME280;4364;52.426;9.424;2023-11-19T10:29:23;100168.72;;;11.20;100.00
8653;BME280;4364;52.426;9.424;2023-11-19T10:31:59;100164.66;;;11.17;100.00
8653;BME280;4364;52.426;9.424;2023-11-19T10:34:45;100175.16;;;11.24;100.00
8653;BME280;4364;52.426;9.424;2023-11-19T10:37:28;100170.31;;;11.21;100.00
8653;BME280;4364;52.426;9.424;2023-11-19T10:40:00;100168.28;;;11.31;100.00
8653;BME280;4364;52.426;9.424;2023-11-19T10:42:27;100155.47;;;11.32;100.00
8653;BME280;4364;52.426;9.424;2023-11-19T10:44:54;100161.41;;;11.34;100.00
8653;BME280;4364;52.426;9.424;2023-11-19T10:47:22;100164.00;;;11.44;100.00
8653;BME280;4364;52.426;9.424;2023-11-19T10:49:52;100170.75;;;11.47;100.00
8653;BME280;4364;52.426;9.424;2023-11-19T10:52:18;100167.75;;;11.48;100.00
8653;BME280;4364;52.426;9.424;2023-11-19T10:54:50;100162.59;;;11.47;100.00
8653;BME280;4364;52.426;9.424;2023-11-19T10:57:21;100164.94;;;11.54;100.00
8653;BME280;4364;52.426;9.424;2023-11-19T11:00:00;100163.63;;;11.51;100.00
8653;BME280;4364;52.426;9.424;2023-11-19T11:02:30;100163.53;;;11.56;100.00
8653;BME280;4364;52.426;9.424;2023-11-19T11:05:01;100173.09;;;11.54;100.00
8653;BME280;4364;52.426;9.424;2023-11-19T11:07:30;100154.25;;;11.57;100.00
8653;BME280;4364;52.426;9.424;2023-11-19T11:10:07;100154.72;;;11.64;100.00
8653;BME280;4364;52.426;9.424;2023-11-19T11:12:36;100158.06;;;11.75;100.00
8653;BME280;4364;52.426;9.424;2023-11-19T11:15:05;100163.13;;;11.82;100.00
8653;BME280;4364;52.426;9.424;2023-11-19T11:17:33;100158.66;;;11.91;100.00
8653;BME280;4364;52.426;9.424;2023-11-19T11:20:00;100152.63;;;11.89;100.00
8653;BME280;4364;52.426;9.424;2023-11-19T11:22:34;100156.34;;;11.98;100.00
8653;BME280;4364;52.426;9.424;2023-11-19T11:25:26;100154.63;;;12.02;100.00
8653;BME280;4364;52.426;9.424;2023-11-19T11:28:13;100156.34;;;12.12;100.00
8653;BME280;4364;52.426;9.424;2023-11-19T11:31:08;100160.16;;;11.97;100.00
8653;BME280;4364;52.426;9.424;2023-11-19T11:36:31;100167.56;;;11.78;99.72
8653;BME280;4364;52.426;9.424;2023-11-19T11:39:00;100162.81;;;11.83;100.00
8653;BME280;4364;52.426;9.424;2023-11-19T11:41:27;100170.97;;;11.70;100.00
8653;BME280;4364;52.426;9.424;2023-11-19T11:43:56;100165.28;;;11.66;100.00
8653;BME280;4364;52.426;9.424;2023-11-19T11:49:01;100168.44;;;11.73;100.00
8653;BME280;4364;52.426;9.424;2023-11-19T12:02:07;100156.28;;;11.84;100.00
8653;BME280;4364;52.426;9.424;2023-11-19T12:04:38;100166.94;;;11.81;99.90
8653;BME280;4364;52.426;9.424;2023-11-19T12:07:12;100169.16;;;11.79;99.69
8653;BME280;4364;52.426;9.424;2023-11-19T12:09:47;100157.47;;;11.78;100.00
8653;BME280;4364;52.426;9.424;2023-11-19T12:15:06;100152.13;;;11.87;99.21
8653;BME280;4364;52.426;9.424;2023-11-19T12:20:02;100175.22;;;11.95;98.74
8653;BME280;4364;52.426;9.424;2023-11-19T12:22:29;100163.63;;;11.84;98.13
8653;BME280;4364;52.426;9.424;2023-11-19T12:24:56;100164.91;;;11.92;99.04
8653;BME280;4364;52.426;9.424;2023-11-19T12:27:22;100160.47;;;11.96;99.05
8653;BME280;4364;52.426;9.424;2023-11-19T12:29:49;100164.59;;;11.93;98.74
8653;BME280;4364;52.426;9.424;2023-11-19T12:32:16;100168.03;;;11.99;98.23
8653;BME280;4364;52.426;9.424;2023-11-19T12:34:44;100160.25;;;11.92;98.41
8653;BME280;4364;52.426;9.424;2023-11-19T12:37:11;100164.75;;;11.83;99.40
8653;BME280;4364;52.426;9.424;2023-11-19T12:39:38;100162.31;;;11.81;100.00
8653;BME280;4364;52.426;9.424;2023-11-19T12:42:04;100160.88;;;11.70;100.00
8653;BME280;4364;52.426;9.424;2023-11-19T12:44:31;100165.22;;;11.71;100.00
8653;BME280;4364;52.426;9.424;2023-11-19T12:47:05;100156.91;;;11.62;100.00
8653;BME280;4364;52.426;9.424;2023-11-19T12:49:33;100161.34;;;11.58;100.00
8653;BME280;4364;52.426;9.424;2023-11-19T12:52:01;100146.69;;;11.54;100.00
8653;BME280;4364;52.426;9.424;2023-11-19T12:54:35;100158.19;;;11.51;100.00
8653;BME280;4364;52.426;9.424;2023-11-19T12:57:02;100150.31;;;11.49;100.00
8653;BME280;4364;52.426;9.424;2023-11-19T12:59:29;100148.59;;;11.54;100.00
8653;BME280;4364;52.426;9.424;2023-11-19T13:01:57;100143.25;;;11.48;100.00
8653;BME280;4364;52.426;9.424;2023-11-19T13:04:28;100146.63;;;11.40;100.00
8653;BME280;4364;52.426;9.424;2023-11-19T13:06:55;100144.56;;;11.32;100.00
8653;BME280;4364;52.426;9.424;2023-11-19T13:09:26;100135.59;;;11.31;100.00
8653;BME280;4364;52.426;9.424;2023-11-19T13:11:54;100137.38;;;11.22;100.00
8653;BME280;4364;52.426;9.424;2023-11-19T13:14:22;100123.47;;;11.24;100.00
8653;BME280;4364;52.426;9.424;2023-11-19T13:16:50;100130.53;;;11.25;100.00
8653;BME280;4364;52.426;9.424;2023-11-19T13:19:16;100126.25;;;11.19;100.00
8653;BME280;4364;52.426;9.424;2023-11-19T13:21:45;100124.41;;;11.14;100.00
8653;BME280;4364;52.426;9.424;2023-11-19T13:24:15;100131.19;;;11.17;100.00
8653;BME280;4364;52.426;9.424;2023-11-19T13:26:41;100118.75;;;11.10;100.00
8653;BME280;4364;52.426;9.424;2023-11-19T13:29:08;100122.00;;;11.12;100.00
8653;BME280;4364;52.426;9.424;2023-11-19T13:31:37;100111.72;;;11.09;100.00
8653;BME280;4364;52.426;9.424;2023-11-19T13:34:03;100120.31;;;11.17;100.00